createdAt,value
2022-08-12T00:02:04.133Z,3.33
2022-08-12T00:04:52.489Z,2.72
2022-08-12T00:07:38.065Z,3.70
2022-08-12T00:10:23.706Z,3.20
2022-08-12T00:13:08.785Z,3.08
2022-08-12T00:15:54.907Z,3.15
2022-08-12T00:18:40.178Z,2.97
2022-08-12T00:21:25.538Z,2.70
2022-08-12T00:24:12.672Z,3.47
2022-08-12T00:27:00.114Z,2.88
2022-08-12T00:29:47.973Z,3.08
2022-08-12T00:32:56.856Z,6.43
2022-08-12T00:35:39.464Z,6.30
2022-08-12T00:38:25.945Z,5.45
2022-08-12T00:41:11.595Z,4.28
2022-08-12T00:43:38.344Z,4.00
2022-08-12T00:46:24.004Z,2.75
2022-08-12T00:48:51.665Z,3.10
2022-08-12T00:51:19.649Z,3.38
2022-08-12T00:53:46.253Z,3.47
2022-08-12T00:56:12.870Z,3.67
2022-08-12T00:58:47.024Z,3.55
2022-08-12T01:01:14.449Z,3.17
2022-08-12T01:03:59.775Z,3.05
2022-08-12T01:06:46.315Z,3.50
2022-08-12T01:09:37.213Z,3.70
2022-08-12T01:12:06.345Z,3.58
2022-08-12T01:14:34.402Z,3.38
2022-08-12T01:17:01.018Z,3.20
2022-08-12T01:19:27.479Z,3.20
2022-08-12T01:22:23.146Z,3.10
2022-08-12T01:25:06.761Z,3.45
2022-08-12T01:27:35.107Z,3.03
2022-08-12T01:30:07.742Z,3.50
2022-08-12T01:32:38.396Z,3.20
2022-08-12T01:35:13.478Z,3.38
2022-08-12T01:37:56.509Z,3.47
2022-08-12T01:40:37.803Z,2.97
2022-08-12T01:43:10.924Z,3.50
2022-08-12T01:45:57.054Z,3.20
2022-08-12T01:48:34.848Z,3.30
2022-08-12T01:52:19.807Z,3.30
2022-08-12T01:54:28.804Z,3.03
2022-08-12T01:57:02.279Z,3.38
2022-08-12T01:59:58.426Z,3.63
2022-08-12T02:02:55.316Z,3.45
2022-08-12T02:06:01.233Z,3.22
2022-08-12T02:08:49.612Z,3.38
2022-08-12T02:11:24.629Z,3.17
2022-08-12T02:14:31.374Z,3.45
2022-08-12T02:17:24.126Z,3.17
2022-08-12T02:20:51.131Z,3.05
2022-08-12T02:23:26.787Z,3.63
2022-08-12T02:25:58.033Z,3.53
2022-08-12T02:28:24.876Z,3.88
2022-08-12T02:30:51.366Z,3.58
2022-08-12T02:33:19.706Z,3.47
2022-08-12T02:38:28.654Z,3.30
2022-08-12T02:40:57.456Z,3.95
2022-08-12T02:43:40.253Z,3.72
2022-08-12T02:46:14.475Z,3.55
2022-08-12T02:48:52.278Z,3.88
2022-08-12T02:51:34.000Z,3.38
2022-08-12T02:54:05.347Z,3.38
2022-08-12T02:56:34.188Z,3.42
2022-08-12T02:59:01.784Z,4.18
2022-08-12T03:01:35.613Z,3.90
2022-08-12T03:04:20.250Z,4.07
2022-08-12T03:07:09.492Z,3.35
2022-08-12T03:10:04.814Z,3.67
2022-08-12T03:12:42.817Z,4.13
2022-08-12T03:15:18.126Z,4.30
2022-08-12T03:18:25.879Z,3.30
2022-08-12T03:20:56.626Z,3.97
2022-08-12T03:23:29.795Z,3.72
2022-08-12T03:26:00.508Z,3.53
2022-08-12T03:28:47.677Z,4.45
2022-08-12T03:31:14.187Z,3.45
2022-08-12T03:34:00.773Z,3.67
2022-08-12T03:36:31.911Z,4.00
2022-08-12T03:39:35.549Z,3.97
2022-08-12T03:42:24.167Z,3.92
2022-08-12T03:45:26.407Z,3.50
2022-08-12T03:48:18.822Z,3.35
2022-08-12T03:51:05.939Z,4.10
2022-08-12T03:53:51.737Z,3.70
2022-08-12T03:56:37.046Z,3.30
2022-08-12T03:59:24.370Z,4.05
2022-08-12T04:01:57.661Z,4.00
2022-08-12T04:04:32.963Z,4.78
2022-08-12T04:07:09.861Z,4.13
2022-08-12T04:09:43.048Z,3.90
2022-08-12T04:12:29.946Z,4.45
2022-08-12T04:15:00.375Z,3.70
2022-08-12T04:17:27.983Z,3.67
2022-08-12T04:19:56.644Z,4.85
2022-08-12T04:22:29.407Z,3.92
2022-08-12T04:25:01.477Z,4.35
2022-08-12T04:27:31.517Z,4.45
2022-08-12T04:30:16.370Z,4.00
2022-08-12T04:32:48.180Z,4.95
2022-08-12T04:35:15.092Z,4.15
2022-08-12T04:37:58.402Z,4.10
2022-08-12T04:40:29.011Z,4.38
2022-08-12T04:42:55.959Z,4.88
2022-08-12T04:45:22.823Z,4.13
2022-08-12T04:47:49.607Z,4.68
2022-08-12T04:50:34.607Z,3.92
2022-08-12T04:53:08.245Z,3.95
2022-08-12T04:55:38.812Z,4.50
2022-08-12T04:58:06.731Z,3.78
2022-08-12T05:00:33.882Z,3.88
2022-08-12T05:03:00.437Z,3.78
2022-08-12T05:05:30.347Z,4.35
2022-08-12T05:07:59.080Z,3.80
2022-08-12T05:10:34.000Z,3.85
2022-08-12T05:13:08.117Z,3.55
2022-08-12T05:16:03.924Z,3.95
2022-08-12T05:18:25.294Z,4.07
2022-08-12T05:20:55.713Z,3.95
2022-08-12T05:23:22.523Z,3.95
2022-08-12T05:25:51.336Z,3.92
2022-08-12T05:28:18.222Z,4.30
2022-08-12T05:30:45.880Z,3.80
2022-08-12T05:33:13.582Z,4.32
2022-08-12T05:35:43.528Z,4.45
2022-08-12T05:38:41.034Z,4.53
2022-08-12T05:41:19.016Z,3.83
2022-08-12T05:44:00.684Z,4.13
2022-08-12T05:46:29.030Z,3.92
2022-08-12T05:48:56.358Z,3.67
2022-08-12T05:51:39.571Z,3.63
2022-08-12T05:54:08.819Z,3.85
2022-08-12T05:56:36.068Z,3.78
2022-08-12T05:59:07.522Z,3.38
2022-08-12T06:02:12.302Z,3.75
2022-08-12T06:04:21.450Z,3.67
2022-08-12T06:06:51.389Z,4.80
2022-08-12T06:09:17.808Z,3.70
2022-08-12T06:12:05.926Z,3.78
2022-08-12T06:14:36.713Z,3.10
2022-08-12T06:17:04.422Z,3.33
2022-08-12T06:20:26.593Z,3.20
2022-08-12T06:22:18.037Z,3.58
2022-08-12T06:24:44.505Z,3.85
2022-08-12T06:27:11.549Z,3.33
2022-08-12T06:30:08.848Z,3.10
2022-08-12T06:32:27.464Z,3.60
2022-08-12T06:35:23.400Z,3.10
2022-08-12T06:37:45.805Z,3.35
2022-08-12T06:40:42.205Z,2.92
2022-08-12T06:43:08.738Z,2.72
2022-08-12T06:45:45.231Z,3.42
2022-08-12T06:48:12.333Z,3.28
2022-08-12T06:50:40.204Z,2.53
2022-08-12T06:53:06.850Z,2.60
2022-08-12T06:55:33.299Z,2.33
2022-08-12T06:58:07.396Z,2.72
2022-08-12T07:00:36.966Z,2.42
2022-08-12T07:03:22.702Z,2.53
2022-08-12T07:05:50.854Z,2.05
2022-08-12T07:08:18.171Z,1.90
2022-08-12T07:10:50.789Z,2.25
2022-08-12T07:13:17.252Z,2.13
2022-08-12T07:15:43.868Z,1.70
2022-08-12T07:18:11.982Z,1.73
2022-08-12T07:20:51.831Z,2.08
2022-08-12T07:23:19.459Z,1.88
2022-08-12T07:25:45.958Z,2.22
2022-08-12T07:28:24.498Z,2.17
2022-08-12T07:30:53.366Z,2.60
2022-08-12T07:33:23.020Z,2.17
2022-08-12T07:35:53.876Z,2.10
2022-08-12T07:38:29.113Z,1.65
2022-08-12T07:41:15.818Z,1.85
2022-08-12T07:43:51.459Z,2.08
2022-08-12T07:46:22.548Z,2.20
2022-08-12T07:48:51.896Z,2.00
2022-08-12T07:51:25.274Z,1.70
2022-08-12T07:54:00.537Z,2.08
2022-08-12T07:56:31.130Z,1.60
2022-08-12T07:58:59.198Z,1.42
2022-08-12T08:01:26.383Z,2.35
2022-08-12T08:04:17.992Z,1.95
2022-08-12T08:06:45.934Z,1.50
2022-08-12T08:09:14.866Z,1.80
2022-08-12T08:12:00.382Z,1.75
2022-08-12T08:14:31.733Z,1.60
2022-08-12T08:16:59.708Z,1.42
2022-08-12T08:19:29.019Z,1.77
2022-08-12T08:21:57.189Z,1.30
2022-08-12T08:24:26.904Z,1.50
2022-08-12T08:26:58.878Z,1.40
2022-08-12T08:29:25.721Z,1.23
2022-08-12T08:31:59.927Z,1.10
2022-08-12T08:34:49.136Z,1.58
2022-08-12T08:37:17.281Z,1.42
2022-08-12T08:39:43.976Z,1.67
2022-08-12T08:42:36.786Z,1.10
2022-08-12T08:45:12.831Z,1.40
2022-08-12T08:47:49.674Z,1.45
2022-08-12T08:50:16.245Z,1.30
2022-08-12T08:52:47.330Z,1.05
2022-08-12T08:55:20.842Z,1.40
2022-08-12T08:57:53.611Z,1.10
2022-08-12T09:00:21.704Z,1.33
2022-08-12T09:02:59.502Z,1.40
2022-08-12T09:05:27.696Z,1.13
2022-08-12T09:08:09.077Z,1.15
2022-08-12T09:10:45.188Z,1.25
2022-08-12T09:14:12.960Z,1.20
2022-08-12T09:16:21.285Z,1.60
2022-08-12T09:18:52.683Z,1.20
2022-08-12T09:21:23.240Z,1.30
2022-08-12T09:23:57.752Z,1.45
2022-08-12T09:26:29.165Z,1.30
2022-08-12T09:28:56.850Z,1.30
2022-08-12T09:32:05.838Z,1.40
2022-08-12T09:34:28.118Z,1.60
2022-08-12T09:37:02.562Z,1.17
2022-08-12T09:40:03.590Z,1.48
2022-08-12T09:43:10.955Z,1.10
2022-08-12T09:46:06.941Z,1.30
2022-08-12T09:48:23.202Z,1.40
2022-08-12T09:50:51.870Z,1.20
2022-08-12T09:53:36.335Z,1.60
2022-08-12T09:57:00.931Z,1.35
2022-08-12T09:59:00.369Z,1.50
2022-08-12T10:01:35.354Z,1.35
2022-08-12T10:04:19.289Z,1.60
2022-08-12T10:06:53.790Z,1.40
2022-08-12T10:09:23.117Z,1.52
2022-08-12T10:12:14.206Z,2.00
2022-08-12T10:14:49.802Z,2.03
2022-08-12T10:17:18.571Z,1.63
2022-08-12T10:19:51.627Z,1.50
2022-08-12T10:22:37.228Z,1.45
2022-08-12T10:26:38.185Z,1.55
2022-08-12T10:28:30.467Z,1.70
2022-08-12T10:30:59.315Z,1.77
2022-08-12T10:33:31.454Z,1.40
2022-08-12T10:35:59.747Z,1.45
2022-08-12T10:38:38.140Z,2.05
2022-08-12T10:41:56.550Z,1.52
2022-08-12T10:44:16.995Z,1.70
2022-08-12T10:46:49.063Z,1.40
2022-08-12T10:50:03.659Z,1.63
2022-08-12T10:52:34.725Z,1.52
2022-08-12T10:54:53.393Z,1.55
2022-08-12T10:58:13.017Z,1.70
2022-08-12T11:00:30.583Z,1.73
2022-08-12T11:04:27.682Z,1.70
2022-08-12T11:07:10.203Z,1.52
2022-08-12T11:08:42.319Z,1.70
2022-08-12T11:11:13.602Z,1.65
2022-08-12T11:13:46.586Z,3.08
2022-08-12T11:16:22.522Z,4.55
2022-08-12T11:18:55.423Z,5.05
2022-08-12T11:21:56.397Z,1.98
2022-08-12T11:24:30.712Z,1.83
2022-08-12T11:27:07.797Z,1.75
2022-08-12T11:30:05.763Z,1.77
2022-08-12T11:32:29.386Z,1.70
2022-08-12T11:35:05.936Z,1.90
2022-08-12T11:37:59.392Z,1.50
2022-08-12T11:40:50.504Z,2.05
2022-08-12T11:43:50.294Z,1.27
2022-08-12T11:46:26.639Z,1.83
2022-08-12T11:48:53.070Z,2.05
2022-08-12T11:51:20.780Z,1.60
2022-08-12T11:53:58.341Z,1.63
2022-08-12T11:56:38.567Z,1.92
2022-08-12T12:02:04.741Z,1.80
2022-08-12T12:04:32.141Z,1.30
2022-08-12T12:07:07.447Z,1.60
2022-08-12T12:09:52.373Z,1.70
2022-08-12T12:12:22.306Z,1.15
2022-08-12T12:14:54.223Z,1.58
2022-08-12T12:17:21.655Z,2.05
2022-08-12T12:19:48.619Z,1.42
2022-08-12T12:22:15.693Z,1.80
2022-08-12T12:24:51.036Z,1.52
2022-08-12T12:27:39.384Z,1.40
2022-08-12T12:30:17.688Z,1.10
2022-08-12T12:32:53.738Z,1.40
2022-08-12T12:36:19.968Z,1.70
2022-08-12T12:38:12.867Z,1.50
2022-08-12T12:40:45.704Z,1.40
2022-08-12T12:43:16.998Z,1.83
2022-08-12T12:46:03.452Z,1.60
2022-08-12T12:48:29.886Z,1.38
2022-08-12T12:51:49.370Z,1.23
2022-08-12T12:54:07.187Z,1.40
2022-08-12T12:56:42.299Z,1.48
2022-08-12T12:59:33.703Z,1.95
2022-08-12T13:01:56.140Z,1.60
2022-08-12T13:04:24.644Z,1.70
2022-08-12T13:07:01.249Z,1.80
2022-08-12T13:09:28.393Z,1.40
2022-08-12T13:12:03.031Z,2.10
2022-08-12T13:14:31.632Z,1.38
2022-08-12T13:17:02.936Z,1.52
2022-08-12T13:19:43.451Z,1.40
2022-08-12T13:22:18.552Z,1.70
2022-08-12T13:24:54.943Z,1.40
2022-08-12T13:27:35.516Z,1.58
2022-08-12T13:30:06.906Z,1.40
2022-08-12T13:32:38.063Z,1.40
2022-08-12T13:35:19.237Z,1.63
2022-08-12T13:37:55.121Z,1.75
2022-08-12T13:40:40.742Z,1.63
2022-08-12T13:43:07.510Z,1.45
2022-08-12T13:45:35.414Z,1.67
2022-08-12T13:48:07.174Z,1.63
2022-08-12T13:50:38.672Z,1.48
2022-08-12T13:53:23.986Z,1.40
2022-08-12T13:55:59.522Z,1.42
2022-08-12T13:58:29.102Z,1.40
2022-08-12T14:00:58.003Z,1.63
2022-08-12T14:03:28.025Z,1.85
2022-08-12T14:05:59.149Z,1.38
2022-08-12T14:08:25.898Z,1.30
2022-08-12T14:11:02.047Z,1.90
2022-08-12T14:14:03.854Z,1.40
2022-08-12T14:16:37.821Z,1.42
2022-08-12T14:19:05.135Z,1.33
2022-08-12T14:21:59.288Z,1.30
2022-08-12T14:24:30.818Z,1.83
2022-08-12T14:26:57.518Z,1.40
2022-08-12T14:29:55.699Z,2.22
2022-08-12T14:32:39.160Z,1.70
2022-08-12T14:35:10.938Z,1.42
2022-08-12T14:37:57.323Z,1.60
2022-08-12T14:40:29.495Z,1.45
2022-08-12T14:42:58.324Z,1.35
2022-08-12T14:45:45.582Z,1.50
2022-08-12T14:48:13.135Z,1.33
2022-08-12T14:51:03.182Z,1.50
2022-08-12T14:59:23.804Z,1.65
2022-08-12T15:02:17.111Z,1.48
2022-08-12T15:05:03.470Z,1.48
2022-08-12T15:07:33.167Z,1.75
2022-08-12T15:10:10.767Z,1.63
2022-08-12T15:12:40.527Z,1.77
2022-08-12T15:15:08.761Z,1.70
2022-08-12T15:17:38.543Z,1.60
2022-08-12T15:20:31.512Z,1.40
2022-08-12T15:22:53.866Z,1.25
2022-08-12T15:25:20.745Z,1.52
2022-08-12T15:28:04.457Z,1.30
2022-08-12T15:30:34.637Z,1.27
2022-08-12T15:33:12.239Z,1.95
2022-08-12T15:35:50.250Z,1.83
2022-08-12T15:38:20.719Z,1.58
2022-08-12T15:40:49.929Z,1.80
2022-08-12T15:43:35.479Z,1.58
2022-08-12T15:46:06.256Z,1.73
2022-08-12T15:48:32.914Z,1.38
2022-08-12T15:51:01.931Z,1.30
2022-08-12T15:53:53.163Z,1.45
2022-08-12T15:56:29.355Z,1.70
2022-08-12T15:58:58.861Z,1.30
2022-08-12T16:01:35.138Z,1.95
2022-08-12T16:04:02.990Z,1.60
2022-08-12T16:06:50.989Z,1.93
2022-08-12T16:09:21.507Z,1.40
2022-08-12T16:11:48.753Z,1.57
2022-08-12T16:14:16.219Z,2.00
2022-08-12T16:16:42.924Z,1.30
2022-08-12T16:20:01.862Z,1.75
2022-08-12T16:21:58.226Z,1.58
2022-08-12T16:24:25.413Z,1.40
2022-08-12T16:27:03.778Z,1.70
2022-08-12T16:29:53.813Z,1.80
2022-08-12T16:32:31.741Z,1.60
2022-08-12T16:34:59.819Z,1.90
2022-08-12T16:38:04.746Z,1.42
2022-08-12T16:40:14.328Z,1.75
2022-08-12T16:42:53.807Z,1.70
2022-08-12T16:46:04.351Z,2.13
2022-08-12T16:51:09.487Z,1.77
2022-08-12T16:53:44.654Z,1.65
2022-08-12T16:56:15.162Z,1.80
2022-08-12T16:58:42.271Z,1.73
2022-08-12T17:01:13.978Z,2.03
2022-08-12T17:03:58.842Z,2.08
2022-08-12T17:06:28.127Z,1.80
2022-08-12T17:09:02.861Z,2.10
2022-08-12T17:11:30.972Z,1.77
2022-08-12T17:13:59.097Z,2.10
2022-08-12T17:16:30.143Z,2.10
2022-08-12T17:18:59.715Z,2.08
2022-08-12T17:21:41.373Z,1.75
2022-08-12T17:24:21.714Z,2.10
2022-08-12T17:29:24.014Z,1.67
2022-08-12T17:32:07.296Z,2.00
2022-08-12T17:34:54.101Z,2.13
2022-08-12T17:37:21.260Z,1.65
2022-08-12T17:40:07.431Z,2.45
2022-08-12T17:42:35.546Z,2.47
2022-08-12T17:45:18.207Z,1.90
2022-08-12T17:48:01.748Z,1.80
2022-08-12T17:50:36.870Z,1.92
2022-08-12T17:53:08.115Z,2.00
2022-08-12T17:55:44.004Z,2.10
2022-08-12T17:58:15.007Z,1.85
2022-08-12T18:00:46.062Z,1.90
2022-08-12T18:04:06.936Z,1.92
2022-08-12T18:06:14.255Z,2.20
2022-08-12T18:08:54.567Z,1.95
2022-08-12T18:12:05.569Z,2.03
2022-08-12T18:14:28.954Z,1.98
2022-08-12T18:17:00.522Z,1.90
2022-08-12T18:20:03.530Z,2.55
2022-08-12T18:22:17.604Z,2.00
2022-08-12T18:25:01.471Z,1.73
2022-08-12T18:27:43.488Z,1.92
2022-08-12T18:30:13.196Z,1.88
2022-08-12T18:32:59.101Z,2.40
2022-08-12T18:35:47.791Z,2.55
2022-08-12T18:38:17.083Z,2.10
2022-08-12T18:41:04.140Z,2.03
2022-08-12T18:43:57.213Z,2.20
2022-08-12T18:46:29.237Z,3.90
2022-08-12T18:48:57.587Z,2.10
2022-08-12T18:51:51.892Z,2.60
2022-08-12T18:54:23.284Z,2.33
2022-08-12T18:56:49.968Z,2.45
2022-08-12T19:00:01.145Z,2.75
2022-08-12T19:02:21.840Z,3.90
2022-08-12T19:04:49.568Z,3.03
2022-08-12T19:07:24.870Z,2.88
2022-08-12T19:09:59.976Z,2.25
2022-08-12T19:12:57.244Z,2.60
2022-08-12T19:15:25.619Z,4.97
2022-08-12T19:18:00.502Z,3.20
2022-08-12T19:20:32.847Z,3.22
2022-08-12T19:23:07.192Z,2.70
2022-08-12T19:26:00.521Z,2.65
2022-08-12T19:28:26.078Z,2.75
2022-08-12T19:31:17.546Z,2.40
2022-08-12T19:34:00.912Z,2.70
2022-08-12T19:36:32.483Z,2.85
2022-08-12T19:39:01.774Z,3.00
2022-08-12T19:41:42.454Z,3.03
2022-08-12T19:44:16.766Z,2.60
2022-08-12T19:46:52.907Z,2.78
2022-08-12T19:49:20.476Z,2.58
2022-08-12T19:51:51.543Z,2.55
2022-08-12T19:54:22.994Z,2.92
2022-08-12T19:56:57.455Z,2.55
2022-08-12T19:59:43.258Z,2.70
2022-08-12T20:02:22.738Z,2.90
2022-08-12T20:06:06.055Z,2.25
2022-08-12T20:07:57.164Z,2.40
2022-08-12T20:10:36.408Z,2.30
2022-08-12T20:13:18.337Z,2.45
2022-08-12T20:15:51.092Z,2.67
2022-08-12T20:18:53.275Z,2.67
2022-08-12T20:21:15.928Z,2.65
2022-08-12T20:23:59.854Z,2.63
2022-08-12T20:26:27.666Z,2.85
2022-08-12T20:28:54.821Z,3.13
2022-08-12T20:31:21.285Z,2.70
2022-08-12T20:33:50.657Z,2.95
2022-08-12T20:36:42.837Z,2.88
2022-08-12T20:39:34.059Z,2.97
2022-08-12T20:42:01.781Z,2.58
2022-08-12T20:44:30.414Z,2.70
2022-08-12T20:47:06.309Z,2.83
2022-08-12T20:49:44.278Z,2.67
2022-08-12T20:52:15.230Z,3.38
2022-08-12T20:54:50.123Z,2.38
2022-08-12T20:57:20.872Z,2.90
2022-08-12T20:59:50.157Z,3.42
2022-08-12T21:02:24.490Z,3.13
2022-08-12T21:05:16.289Z,3.10
2022-08-12T21:07:47.690Z,2.75
2022-08-12T21:10:18.928Z,2.83
2022-08-12T21:12:47.939Z,2.80
2022-08-12T21:15:18.021Z,2.88
2022-08-12T21:18:11.069Z,3.25
2022-08-12T21:20:55.736Z,2.83
2022-08-12T21:23:23.014Z,3.88
2022-08-12T21:25:51.168Z,2.83
2022-08-12T21:28:20.429Z,2.90
2022-08-12T21:31:11.780Z,3.60
2022-08-12T21:33:58.624Z,2.95
2022-08-12T21:36:22.545Z,3.10
2022-08-12T21:38:51.169Z,3.47
2022-08-12T21:41:20.230Z,2.88
2022-08-12T21:43:52.427Z,3.20
2022-08-12T21:46:35.337Z,3.80
2022-08-12T21:49:04.763Z,3.35
2022-08-12T21:51:49.051Z,3.05
2022-08-12T21:54:22.592Z,2.90
2022-08-12T21:56:50.280Z,3.00
2022-08-12T21:59:17.887Z,3.25
2022-08-12T22:01:48.949Z,3.25
2022-08-12T22:04:35.376Z,3.80
2022-08-12T22:07:02.223Z,3.13
2022-08-12T22:09:29.854Z,3.40
2022-08-12T22:12:39.095Z,3.28
2022-08-12T22:15:09.278Z,3.75
2022-08-12T22:17:49.832Z,3.67
2022-08-12T22:20:21.798Z,3.67
2022-08-12T22:22:57.043Z,3.70
2022-08-12T22:25:24.239Z,3.63
2022-08-12T22:28:11.960Z,4.05
2022-08-12T22:30:56.952Z,3.75
2022-08-12T22:33:23.375Z,3.40
2022-08-12T22:35:58.764Z,3.60
2022-08-12T22:38:29.186Z,3.25
2022-08-12T22:41:30.020Z,3.70
2022-08-12T22:44:15.565Z,3.70
2022-08-12T22:47:01.104Z,3.50
2022-08-12T22:49:36.852Z,3.40
2022-08-12T22:52:18.489Z,3.30
2022-08-12T22:55:02.990Z,3.65
2022-08-12T22:57:53.992Z,3.15
2022-08-12T23:00:23.966Z,3.08
2022-08-12T23:02:59.382Z,3.92
2022-08-12T23:05:57.503Z,3.30
2022-08-12T23:08:18.122Z,3.33
2022-08-12T23:10:48.278Z,3.53
2022-08-12T23:13:43.999Z,4.10
2022-08-12T23:16:28.501Z,3.75
2022-08-12T23:19:10.939Z,4.13
2022-08-12T23:22:06.760Z,3.55
2022-08-12T23:24:38.656Z,3.28
2022-08-12T23:27:23.868Z,3.50
2022-08-12T23:30:18.675Z,3.75
2022-08-12T23:32:46.503Z,3.63
2022-08-12T23:35:22.619Z,9.32
2022-08-12T23:37:53.932Z,10.65
2022-08-12T23:40:22.112Z,8.05
2022-08-12T23:42:49.123Z,4.75
2022-08-12T23:45:20.569Z,4.18
2022-08-12T23:47:59.771Z,4.35
2022-08-12T23:50:33.960Z,4.78
2022-08-12T23:53:05.768Z,3.80
2022-08-12T23:55:35.798Z,4.32
2022-08-12T23:58:21.445Z,3.35
